sensor_id;sensor_type;location;lat;lon;timestamp;pressure;altitude;pressure_sealevel;temperature;humidity
15646;BME280;7922;43.622;1.476;2024-01-15T00:02:12;99725.25;;;7.70;100.00
15646;BME280;7922;43.622;1.476;2024-01-15T00:04:38;99776.00;;;8.02;100.00
15646;BME280;7922;43.622;1.476;2024-01-15T00:07:04;99759.47;;;7.96;100.00
15646;BME280;7922;43.622;1.476;2024-01-15T00:09:30;99726.91;;;7.72;100.00
15646;BME280;7922;43.622;1.476;2024-01-15T00:11:55;99756.09;;;7.93;100.00
15646;BME280;7922;43.622;1.476;2024-01-15T00:14:20;99719.16;;;7.68;100.00
15646;BME280;7922;43.622;1.476;2024-01-15T00:16:46;99769.00;;;8.01;100.00
15646;BME280;7922;43.622;1.476;2024-01-15T00:19:12;99755.00;;;7.99;100.00
15646;BME280;7922;43.622;1.476;2024-01-15T00:21:37;99735.16;;;7.88;100.00
15646;BME280;7922;43.622;1.476;2024-01-15T00:24:03;99773.16;;;8.08;100.00
15646;BME280;7922;43.622;1.476;2024-01-15T00:26:28;99766.09;;;8.08;100.00
15646;BME280;7922;43.622;1.476;2024-01-15T00:28:54;99737.56;;;7.94;100.00
15646;BME280;7922;43.622;1.476;2024-01-15T00:31:19;99737.28;;;8.02;100.00
15646;BME280;7922;43.622;1.476;2024-01-15T00:33:44;99717.31;;;7.95;100.00
15646;BME280;7922;43.622;1.476;2024-01-15T00:36:09;99675.09;;;7.71;100.00
15646;BME280;7922;43.622;1.476;2024-01-15T00:38:35;99736.53;;;7.99;100.00
15646;BME280;7922;43.622;1.476;2024-01-15T00:41:00;99729.66;;;7.94;100.00
15646;BME280;7922;43.622;1.476;2024-01-15T00:43:25;99740.84;;;8.01;100.00
15646;BME280;7922;43.622;1.476;2024-01-15T00:45:50;99717.78;;;7.83;100.00
15646;BME280;7922;43.622;1.476;2024-01-15T00:48:16;99720.47;;;7.81;100.00
15646;BME280;7922;43.622;1.476;2024-01-15T00:50:41;99734.06;;;7.94;100.00
15646;BME280;7922;43.622;1.476;2024-01-15T00:53:06;99680.75;;;7.61;100.00
15646;BME280;7922;43.622;1.476;2024-01-15T00:55:31;99754.91;;;8.02;100.00
15646;BME280;7922;43.622;1.476;2024-01-15T00:57:57;99679.03;;;7.60;100.00
15646;BME280;7922;43.622;1.476;2024-01-15T01:00:22;99730.56;;;7.93;100.00
15646;BME280;7922;43.622;1.476;2024-01-15T01:02:47;99733.97;;;7.97;100.00
15646;BME280;7922;43.622;1.476;2024-01-15T01:05:13;99728.63;;;7.99;100.00
15646;BME280;7922;43.622;1.476;2024-01-15T01:07:38;99695.00;;;7.80;100.00
15646;BME280;7922;43.622;1.476;2024-01-15T01:10:04;99747.25;;;8.19;100.00
15646;BME280;7922;43.622;1.476;2024-01-15T01:12:29;99681.66;;;7.85;100.00
15646;BME280;7922;43.622;1.476;2024-01-15T01:14:54;99683.31;;;7.87;100.00
15646;BME280;7922;43.622;1.476;2024-01-15T01:17:20;99726.41;;;8.11;100.00
15646;BME280;7922;43.622;1.476;2024-01-15T01:19:45;99688.38;;;7.93;100.00
15646;BME280;7922;43.622;1.476;2024-01-15T01:22:10;99649.50;;;7.75;100.00
15646;BME280;7922;43.622;1.476;2024-01-15T01:24:36;99695.16;;;8.01;100.00
15646;BME280;7922;43.622;1.476;2024-01-15T01:27:01;99649.78;;;7.67;100.00
15646;BME280;7922;43.622;1.476;2024-01-15T01:29:26;99669.72;;;7.75;100.00
15646;BME280;7922;43.622;1.476;2024-01-15T01:31:51;99663.88;;;7.66;100.00
15646;BME280;7922;43.622;1.476;2024-01-15T01:34:17;99701.75;;;7.89;100.00
15646;BME280;7922;43.622;1.476;2024-01-15T01:36:43;99704.28;;;7.92;100.00
15646;BME280;7922;43.622;1.476;2024-01-15T01:39:08;99692.31;;;7.82;100.00
15646;BME280;7922;43.622;1.476;2024-01-15T01:41:33;99683.78;;;7.75;100.00
15646;BME280;7922;43.622;1.476;2024-01-15T01:43:59;99698.75;;;7.73;100.00
15646;BME280;7922;43.622;1.476;2024-01-15T01:46:25;99634.91;;;7.41;100.00
15646;BME280;7922;43.622;1.476;2024-01-15T01:48:52;99631.41;;;7.41;100.00
15646;BME280;7922;43.622;1.476;2024-01-15T01:51:19;99662.50;;;7.55;100.00
15646;BME280;7922;43.622;1.476;2024-01-15T01:53:45;99669.66;;;7.51;100.00
15646;BME280;7922;43.622;1.476;2024-01-15T01:56:11;99686.78;;;7.64;100.00
15646;BME280;7922;43.622;1.476;2024-01-15T01:58:37;99627.28;;;7.32;100.00
15646;BME280;7922;43.622;1.476;2024-01-15T02:01:03;99643.28;;;7.53;100.00
15646;BME280;7922;43.622;1.476;2024-01-15T02:03:30;99626.91;;;7.43;100.00
15646;BME280;7922;43.622;1.476;2024-01-15T02:05:56;99665.63;;;7.66;100.00
15646;BME280;7922;43.622;1.476;2024-01-15T02:08:22;99694.00;;;7.84;100.00
15646;BME280;7922;43.622;1.476;2024-01-15T02:10:47;99693.38;;;7.76;100.00
15646;BME280;7922;43.622;1.476;2024-01-15T02:13:13;99676.34;;;7.61;100.00
15646;BME280;7922;43.622;1.476;2024-01-15T02:15:38;99676.31;;;7.63;100.00
15646;BME280;7922;43.622;1.476;2024-01-15T02:18:05;99633.16;;;7.40;100.00
15646;BME280;7922;43.622;1.476;2024-01-15T02:20:31;99681.13;;;7.75;100.00
15646;BME280;7922;43.622;1.476;2024-01-15T02:23:10;99673.31;;;7.72;100.00
15646;BME280;7922;43.622;1.476;2024-01-15T02:25:44;99679.25;;;7.79;100.00
15646;BME280;7922;43.622;1.476;2024-01-15T02:28:11;99690.47;;;7.84;100.00
15646;BME280;7922;43.622;1.476;2024-01-15T02:30:40;99682.84;;;7.76;100.00
15646;BME280;7922;43.622;1.476;2024-01-15T02:33:10;99704.94;;;7.97;100.00
15646;BME280;7922;43.622;1.476;2024-01-15T02:35:36;99699.56;;;8.00;100.00
15646;BME280;7922;43.622;1.476;2024-01-15T02:38:05;99675.38;;;7.89;100.00
15646;BME280;7922;43.622;1.476;2024-01-15T02:40:31;99679.31;;;8.01;100.00
15646;BME280;7922;43.622;1.476;2024-01-15T02:42:56;99683.69;;;8.02;100.00
15646;BME280;7922;43.622;1.476;2024-01-15T02:45:23;99614.75;;;7.64;100.00
15646;BME280;7922;43.622;1.476;2024-01-15T02:47:49;99677.38;;;8.06;100.00
15646;BME280;7922;43.622;1.476;2024-01-15T02:50:14;99655.16;;;7.88;100.00
15646;BME280;7922;43.622;1.476;2024-01-15T02:52:40;99672.38;;;7.98;100.00
15646;BME280;7922;43.622;1.476;2024-01-15T02:55:06;99613.16;;;7.60;100.00
15646;BME280;7922;43.622;1.476;2024-01-15T02:57:31;99606.31;;;7.54;100.00
15646;BME280;7922;43.622;1.476;2024-01-15T02:59:57;99648.53;;;7.78;100.00
15646;BME280;7922;43.622;1.476;2024-01-15T03:02:22;99607.91;;;7.58;100.00
15646;BME280;7922;43.622;1.476;2024-01-15T03:04:47;99600.81;;;7.60;100.00
15646;BME280;7922;43.622;1.476;2024-01-15T03:07:13;99598.84;;;7.67;100.00
15646;BME280;7922;43.622;1.476;2024-01-15T03:09:38;99626.41;;;7.82;100.00
15646;BME280;7922;43.622;1.476;2024-01-15T03:12:04;99607.19;;;7.78;100.00
15646;BME280;7922;43.622;1.476;2024-01-15T03:14:29;99617.53;;;7.84;100.00
15646;BME280;7922;43.622;1.476;2024-01-15T03:16:55;99577.84;;;7.64;100.00
15646;BME280;7922;43.622;1.476;2024-01-15T03:19:20;99589.16;;;7.67;100.00
15646;BME280;7922;43.622;1.476;2024-01-15T03:21:45;99626.00;;;7.92;100.00
15646;BME280;7922;43.622;1.476;2024-01-15T03:24:11;99642.91;;;7.87;100.00
15646;BME280;7922;43.622;1.476;2024-01-15T03:26:36;99596.81;;;7.50;100.00
15646;BME280;7922;43.622;1.476;2024-01-15T03:29:01;99645.38;;;7.91;100.00
15646;BME280;7922;43.622;1.476;2024-01-15T03:31:27;99609.66;;;7.83;100.00
15646;BME280;7922;43.622;1.476;2024-01-15T03:33:52;99626.00;;;7.92;100.00
15646;BME280;7922;43.622;1.476;2024-01-15T03:36:17;99627.72;;;7.93;100.00
15646;BME280;7922;43.622;1.476;2024-01-15T03:38:43;99641.53;;;8.00;100.00
15646;BME280;7922;43.622;1.476;2024-01-15T03:41:08;99618.44;;;7.83;100.00
15646;BME280;7922;43.622;1.476;2024-01-15T03:43:33;99630.81;;;7.81;100.00
15646;BME280;7922;43.622;1.476;2024-01-15T03:45:59;99557.22;;;7.52;100.00
15646;BME280;7922;43.622;1.476;2024-01-15T03:48:24;99625.81;;;7.97;100.00
15646;BME280;7922;43.622;1.476;2024-01-15T03:50:49;99613.69;;;7.93;100.00
15646;BME280;7922;43.622;1.476;2024-01-15T03:53:14;99611.78;;;7.96;100.00
15646;BME280;7922;43.622;1.476;2024-01-15T03:55:40;99568.69;;;7.74;100.00
15646;BME280;7922;43.622;1.476;2024-01-15T03:58:05;99588.34;;;7.89;100.00
15646;BME280;7922;43.622;1.476;2024-01-15T04:00:30;99537.19;;;7.69;100.00
15646;BME280;7922;43.622;1.476;2024-01-15T04:02:56;99588.84;;;7.99;100.00
15646;BME280;7922;43.622;1.476;2024-01-15T04:05:21;99553.72;;;7.75;100.00
15646;BME280;7922;43.622;1.476;2024-01-15T04:07:46;99607.94;;;8.05;100.00
15646;BME280;7922;43.622;1.476;2024-01-15T04:10:11;99556.28;;;7.76;100.00
15646;BME280;7922;43.622;1.476;2024-01-15T04:12:37;99541.69;;;7.67;100.00
15646;BME280;7922;43.622;1.476;2024-01-15T04:15:02;99607.69;;;8.11;100.00
15646;BME280;7922;43.622;1.476;2024-01-15T04:17:27;99569.59;;;7.96;100.00
15646;BME280;7922;43.622;1.476;2024-01-15T04:19:53;99583.34;;;8.05;100.00
15646;BME280;7922;43.622;1.476;2024-01-15T04:22:18;99533.09;;;7.86;100.00
15646;BME280;7922;43.622;1.476;2024-01-15T04:24:43;99570.16;;;8.05;100.00
15646;BME280;7922;43.622;1.476;2024-01-15T04:27:08;99530.75;;;7.78;100.00
15646;BME280;7922;43.622;1.476;2024-01-15T04:29:34;99534.78;;;7.87;100.00
15646;BME280;7922;43.622;1.476;2024-01-15T04:31:59;99556.09;;;8.04;100.00
15646;BME280;7922;43.622;1.476;2024-01-15T04:34:24;99559.47;;;8.08;100.00
15646;BME280;7922;43.622;1.476;2024-01-15T04:36:49;99568.88;;;8.15;100.00
15646;BME280;7922;43.622;1.476;2024-01-15T04:39:15;99538.59;;;8.02;100.00
15646;BME280;7922;43.622;1.476;2024-01-15T04:41:40;99541.97;;;8.05;100.00
15646;BME280;7922;43.622;1.476;2024-01-15T04:44:05;99510.00;;;7.91;100.00
15646;BME280;7922;43.622;1.476;2024-01-15T04:46:31;99539.19;;;8.10;100.00
15646;BME280;7922;43.622;1.476;2024-01-15T04:48:56;99495.13;;;7.90;100.00
15646;BME280;7922;43.622;1.476;2024-01-15T04:51:21;99483.84;;;7.86;100.00
15646;BME280;7922;43.622;1.476;2024-01-15T04:53:46;99508.13;;;7.94;100.00
15646;BME280;7922;43.622;1.476;2024-01-15T04:56:12;99469.16;;;7.79;100.00
15646;BME280;7922;43.622;1.476;2024-01-15T04:58:37;99544.00;;;8.20;100.00
15646;BME280;7922;43.622;1.476;2024-01-15T05:01:02;99524.44;;;8.04;100.00
15646;BME280;7922;43.622;1.476;2024-01-15T05:03:28;99465.91;;;7.72;100.00
15646;BME280;7922;43.622;1.476;2024-01-15T05:05:53;99494.78;;;7.99;100.00
15646;BME280;7922;43.622;1.476;2024-01-15T05:08:18;99505.78;;;8.09;100.00
15646;BME280;7922;43.622;1.476;2024-01-15T05:10:43;99492.88;;;8.03;100.00
15646;BME280;7922;43.622;1.476;2024-01-15T05:13:09;99498.72;;;8.09;100.00
15646;BME280;7922;43.622;1.476;2024-01-15T05:15:34;99490.34;;;8.00;100.00
15646;BME280;7922;43.622;1.476;2024-01-15T05:17:59;99513.53;;;8.13;100.00
15646;BME280;7922;43.622;1.476;2024-01-15T05:20:24;99527.09;;;8.26;100.00
15646;BME280;7922;43.622;1.476;2024-01-15T05:22:50;99524.44;;;8.26;100.00
15646;BME280;7922;43.622;1.476;2024-01-15T05:25:15;99509.47;;;8.27;100.00
15646;BME280;7922;43.622;1.476;2024-01-15T05:27:40;99511.38;;;8.23;100.00
15646;BME280;7922;43.622;1.476;2024-01-15T05:30:06;99362.56;;;7.42;100.00
15646;BME280;7922;43.622;1.476;2024-01-15T05:32:32;99484.53;;;8.13;100.00
15646;BME280;7922;43.622;1.476;2024-01-15T05:34:57;99454.47;;;7.95;100.00
15646;BME280;7922;43.622;1.476;2024-01-15T05:37:22;99454.50;;;7.94;100.00
15646;BME280;7922;43.622;1.476;2024-01-15T05:39:47;99494.28;;;8.11;100.00
15646;BME280;7922;43.622;1.476;2024-01-15T05:42:13;99478.94;;;7.99;100.00
15646;BME280;7922;43.622;1.476;2024-01-15T05:44:38;99483.09;;;8.05;100.00
15646;BME280;7922;43.622;1.476;2024-01-15T05:47:03;99488.06;;;8.12;100.00
15646;BME280;7922;43.622;1.476;2024-01-15T05:49:29;99483.63;;;8.13;100.00
15646;BME280;7922;43.622;1.476;2024-01-15T05:51:54;99456.19;;;7.96;100.00
15646;BME280;7922;43.622;1.476;2024-01-15T05:54:20;99462.94;;;8.04;100.00
15646;BME280;7922;43.622;1.476;2024-01-15T05:56:45;99439.53;;;7.94;100.00
15646;BME280;7922;43.622;1.476;2024-01-15T05:59:10;99442.06;;;7.97;100.00
15646;BME280;7922;43.622;1.476;2024-01-15T06:01:36;99488.75;;;8.17;100.00
15646;BME280;7922;43.622;1.476;2024-01-15T06:04:01;99503.75;;;8.39;100.00
15646;BME280;7922;43.622;1.476;2024-01-15T06:06:26;99431.59;;;7.96;100.00
15646;BME280;7922;43.622;1.476;2024-01-15T06:08:51;99451.41;;;8.06;100.00
15646;BME280;7922;43.622;1.476;2024-01-15T06:11:17;99500.38;;;8.34;100.00
15646;BME280;7922;43.622;1.476;2024-01-15T06:13:42;99513.47;;;8.37;100.00
15646;BME280;7922;43.622;1.476;2024-01-15T06:16:16;99499.84;;;8.26;100.00
15646;BME280;7922;43.622;1.476;2024-01-15T06:18:42;99479.06;;;8.18;100.00
15646;BME280;7922;43.622;1.476;2024-01-15T06:21:07;99486.69;;;8.24;100.00
15646;BME280;7922;43.622;1.476;2024-01-15T06:23:32;99504.66;;;8.38;100.00
15646;BME280;7922;43.622;1.476;2024-01-15T06:25:57;99469.44;;;8.17;100.00
15646;BME280;7922;43.622;1.476;2024-01-15T06:28:23;99487.28;;;8.32;100.00
15646;BME280;7922;43.622;1.476;2024-01-15T06:30:48;99438.22;;;8.06;100.00
15646;BME280;7922;43.622;1.476;2024-01-15T06:33:13;99484.50;;;8.35;100.00
15646;BME280;7922;43.622;1.476;2024-01-15T06:35:39;99485.31;;;8.37;100.00
15646;BME280;7922;43.622;1.476;2024-01-15T06:38:04;99476.72;;;8.32;100.00
15646;BME280;7922;43.622;1.476;2024-01-15T06:40:29;99440.66;;;8.11;100.00
15646;BME280;7922;43.622;1.476;2024-01-15T06:42:54;99436.13;;;8.14;100.00
15646;BME280;7922;43.622;1.476;2024-01-15T06:45:20;99448.25;;;8.18;100.00
15646;BME280;7922;43.622;1.476;2024-01-15T06:47:45;99508.59;;;8.50;100.00
15646;BME280;7922;43.622;1.476;2024-01-15T06:50:10;99498.19;;;8.45;100.00
15646;BME280;7922;43.622;1.476;2024-01-15T06:52:35;99465.22;;;8.33;100.00
15646;BME280;7922;43.622;1.476;2024-01-15T06:55:01;99423.03;;;8.11;100.00
15646;BME280;7922;43.622;1.476;2024-01-15T06:57:26;99483.28;;;8.44;100.00
15646;BME280;7922;43.622;1.476;2024-01-15T06:59:51;99460.59;;;8.40;100.00
15646;BME280;7922;43.622;1.476;2024-01-15T07:02:16;99416.00;;;8.12;100.00
15646;BME280;7922;43.622;1.476;2024-01-15T07:04:42;99464.00;;;8.42;100.00
15646;BME280;7922;43.622;1.476;2024-01-15T07:07:07;99405.56;;;8.09;100.00
15646;BME280;7922;43.622;1.476;2024-01-15T07:09:32;99444.81;;;8.38;100.00
15646;BME280;7922;43.622;1.476;2024-01-15T07:11:57;99386.19;;;8.10;100.00
15646;BME280;7922;43.622;1.476;2024-01-15T07:14:23;99422.19;;;8.31;100.00
15646;BME280;7922;43.622;1.476;2024-01-15T07:16:48;99441.78;;;8.48;100.00
15646;BME280;7922;43.622;1.476;2024-01-15T07:19:13;99424.72;;;8.34;100.00
15646;BME280;7922;43.622;1.476;2024-01-15T07:21:39;99388.56;;;8.16;100.00
15646;BME280;7922;43.622;1.476;2024-01-15T07:24:04;99437.56;;;8.43;100.00
15646;BME280;7922;43.622;1.476;2024-01-15T07:26:30;99449.91;;;8.43;100.00
15646;BME280;7922;43.622;1.476;2024-01-15T07:28:55;99433.56;;;8.33;100.00
15646;BME280;7922;43.622;1.476;2024-01-15T07:31:20;99444.81;;;8.38;100.00
15646;BME280;7922;43.622;1.476;2024-01-15T07:33:46;99406.50;;;8.08;100.00
15646;BME280;7922;43.622;1.476;2024-01-15T07:36:11;99472.31;;;8.53;100.00
15646;BME280;7922;43.622;1.476;2024-01-15T07:38:36;99461.97;;;8.49;100.00
15646;BME280;7922;43.622;1.476;2024-01-15T07:41:01;99463.31;;;8.59;100.00
15646;BME280;7922;43.622;1.476;2024-01-15T07:43:27;99430.78;;;8.36;100.00
15646;BME280;7922;43.622;1.476;2024-01-15T07:45:52;99449.50;;;8.52;100.00
15646;BME280;7922;43.622;1.476;2024-01-15T07:48:17;99451.16;;;8.55;100.00
15646;BME280;7922;43.622;1.476;2024-01-15T07:50:43;99455.63;;;8.53;100.00
15646;BME280;7922;43.622;1.476;2024-01-15T07:53:08;99451.22;;;8.53;100.00
15646;BME280;7922;43.622;1.476;2024-01-15T07:55:33;99414.22;;;8.33;100.00
15646;BME280;7922;43.622;1.476;2024-01-15T07:57:58;99457.94;;;8.60;100.00
15646;BME280;7922;43.622;1.476;2024-01-15T08:00:24;99417.81;;;8.32;100.00
15646;BME280;7922;43.622;1.476;2024-01-15T08:02:49;99457.03;;;8.61;100.00
15646;BME280;7922;43.622;1.476;2024-01-15T08:05:14;99419.09;;;8.43;100.00
15646;BME280;7922;43.622;1.476;2024-01-15T08:07:42;99447.47;;;8.59;100.00
15646;BME280;7922;43.622;1.476;2024-01-15T08:10:07;99468.50;;;8.60;100.00
15646;BME280;7922;43.622;1.476;2024-01-15T08:12:33;99427.34;;;8.34;100.00
15646;BME280;7922;43.622;1.476;2024-01-15T08:14:58;99421.34;;;8.31;100.00
15646;BME280;7922;43.622;1.476;2024-01-15T08:17:23;99468.78;;;8.75;100.00
15646;BME280;7922;43.622;1.476;2024-01-15T08:19:49;99485.50;;;8.75;100.00
15646;BME280;7922;43.622;1.476;2024-01-15T08:22:14;99470.88;;;8.66;100.00
15646;BME280;7922;43.622;1.476;2024-01-15T08:24:39;99453.72;;;8.56;100.00
15646;BME280;7922;43.622;1.476;2024-01-15T08:27:04;99435.78;;;8.44;100.00
15646;BME280;7922;43.622;1.476;2024-01-15T08:29:30;99440.06;;;8.47;100.00
15646;BME280;7922;43.622;1.476;2024-01-15T08:31:55;99448.56;;;8.53;100.00
15646;BME280;7922;43.622;1.476;2024-01-15T08:34:20;99498.03;;;8.70;100.00
15646;BME280;7922;43.622;1.476;2024-01-15T08:36:45;99493.69;;;8.69;100.00
15646;BME280;7922;43.622;1.476;2024-01-15T08:39:13;99499.94;;;8.87;100.00
15646;BME280;7922;43.622;1.476;2024-01-15T08:41:38;99434.59;;;8.51;100.00
15646;BME280;7922;43.622;1.476;2024-01-15T08:44:04;99489.50;;;8.84;100.00
15646;BME280;7922;43.622;1.476;2024-01-15T08:46:29;99490.13;;;8.90;100.00
15646;BME280;7922;43.622;1.476;2024-01-15T08:48:54;99447.22;;;8.65;100.00
15646;BME280;7922;43.622;1.476;2024-01-15T08:51:19;99506.41;;;9.00;100.00
15646;BME280;7922;43.622;1.476;2024-01-15T08:53:45;99456.50;;;8.74;100.00
15646;BME280;7922;43.622;1.476;2024-01-15T08:56:10;99509.63;;;9.07;100.00
15646;BME280;7922;43.622;1.476;2024-01-15T08:58:35;99443.28;;;8.74;100.00
15646;BME280;7922;43.622;1.476;2024-01-15T09:01:00;99430.19;;;8.72;100.00
15646;BME280;7922;43.622;1.476;2024-01-15T09:03:26;99474.44;;;9.06;100.00
15646;BME280;7922;43.622;1.476;2024-01-15T09:05:51;99500.00;;;9.26;100.00
15646;BME280;7922;43.622;1.476;2024-01-15T09:08:16;99486.53;;;9.12;100.00
15646;BME280;7922;43.622;1.476;2024-01-15T09:10:42;99480.44;;;9.10;100.00
15646;BME280;7922;43.622;1.476;2024-01-15T09:13:07;99444.91;;;8.97;100.00
15646;BME280;7922;43.622;1.476;2024-01-15T09:15:32;99467.00;;;9.14;100.00
15646;BME280;7922;43.622;1.476;2024-01-15T09:17:57;99449.00;;;9.04;100.00
15646;BME280;7922;43.622;1.476;2024-01-15T09:20:23;99486.09;;;9.21;100.00
15646;BME280;7922;43.622;1.476;2024-01-15T09:22:48;99450.03;;;9.01;100.00
15646;BME280;7922;43.622;1.476;2024-01-15T09:25:13;99450.91;;;9.00;100.00
15646;BME280;7922;43.622;1.476;2024-01-15T09:27:39;99462.53;;;9.16;100.00
15646;BME280;7922;43.622;1.476;2024-01-15T09:30:04;99474.09;;;9.33;100.00
15646;BME280;7922;43.622;1.476;2024-01-15T09:32:30;99489.06;;;9.53;100.00
15646;BME280;7922;43.622;1.476;2024-01-15T09:34:55;99434.63;;;9.30;100.00
15646;BME280;7922;43.622;1.476;2024-01-15T09:37:20;99478.22;;;9.59;100.00
15646;BME280;7922;43.622;1.476;2024-01-15T09:39:46;99494.31;;;9.73;100.00
15646;BME280;7922;43.622;1.476;2024-01-15T09:42:11;99516.81;;;9.82;100.00
15646;BME280;7922;43.622;1.476;2024-01-15T09:44:37;99494.66;;;9.84;100.00
15646;BME280;7922;43.622;1.476;2024-01-15T09:47:03;99470.91;;;9.64;100.00
15646;BME280;7922;43.622;1.476;2024-01-15T09:49:29;99447.91;;;9.47;100.00
15646;BME280;7922;43.622;1.476;2024-01-15T09:51:56;99495.16;;;9.74;100.00
15646;BME280;7922;43.622;1.476;2024-01-15T09:54:22;99465.97;;;9.75;100.00
15646;BME280;7922;43.622;1.476;2024-01-15T09:56:47;99511.13;;;10.08;100.00
15646;BME280;7922;43.622;1.476;2024-01-15T09:59:15;99420.03;;;9.78;100.00
15646;BME280;7922;43.622;1.476;2024-01-15T10:01:41;99476.22;;;10.19;100.00
15646;BME280;7922;43.622;1.476;2024-01-15T10:04:12;99496.84;;;10.31;100.00
15646;BME280;7922;43.622;1.476;2024-01-15T10:06:38;99493.25;;;10.32;100.00
15646;BME280;7922;43.622;1.476;2024-01-15T10:09:04;99497.53;;;10.35;100.00
15646;BME280;7922;43.622;1.476;2024-01-15T10:11:30;99489.94;;;10.27;100.00
15646;BME280;7922;43.622;1.476;2024-01-15T10:13:56;99460.41;;;10.18;100.00
15646;BME280;7922;43.622;1.476;2024-01-15T10:16:21;99454.09;;;10.03;100.00
15646;BME280;7922;43.622;1.476;2024-01-15T10:18:46;99493.31;;;10.31;100.00
15646;BME280;7922;43.622;1.476;2024-01-15T10:21:12;99510.59;;;10.38;100.00
15646;BME280;7922;43.622;1.476;2024-01-15T10:23:38;99517.78;;;10.36;100.00
15646;BME280;7922;43.622;1.476;2024-01-15T10:26:03;99459.38;;;10.03;100.00
15646;BME280;7922;43.622;1.476;2024-01-15T10:28:29;99468.69;;;9.93;100.00
15646;BME280;7922;43.622;1.476;2024-01-15T10:30:57;99494.41;;;10.08;100.00
15646;BME280;7922;43.622;1.476;2024-01-15T10:33:22;99520.44;;;10.36;100.00
15646;BME280;7922;43.622;1.476;2024-01-15T10:35:48;99501.81;;;10.38;100.00
15646;BME280;7922;43.622;1.476;2024-01-15T10:38:13;99463.63;;;10.24;100.00
15646;BME280;7922;43.622;1.476;2024-01-15T10:40:38;99449.75;;;10.19;100.00
15646;BME280;7922;43.622;1.476;2024-01-15T10:43:04;99499.03;;;10.58;100.00
15646;BME280;7922;43.622;1.476;2024-01-15T10:45:29;99510.34;;;10.62;100.00
15646;BME280;7922;43.622;1.476;2024-01-15T10:47:54;99490.16;;;10.59;100.00
15646;BME280;7922;43.622;1.476;2024-01-15T10:50:20;99466.53;;;10.37;100.00
15646;BME280;7922;43.622;1.476;2024-01-15T10:52:46;99490.78;;;10.64;100.00
15646;BME280;7922;43.622;1.476;2024-01-15T10:55:11;99421.13;;;10.45;100.00
15646;BME280;7922;43.622;1.476;2024-01-15T10:57:37;99444.50;;;10.71;100.00
15646;BME280;7922;43.622;1.476;2024-01-15T11:00:04;99462.31;;;10.85;100.00
15646;BME280;7922;43.622;1.476;2024-01-15T11:02:30;99469.34;;;10.86;100.00
15646;BME280;7922;43.622;1.476;2024-01-15T11:04:55;99443.72;;;10.69;100.00
15646;BME280;7922;43.622;1.476;2024-01-15T11:07:21;99459.06;;;10.63;100.00
15646;BME280;7922;43.622;1.476;2024-01-15T11:09:50;99410.47;;;10.46;100.00
15646;BME280;7922;43.622;1.476;2024-01-15T11:12:16;99458.63;;;10.72;100.00
15646;BME280;7922;43.622;1.476;2024-01-15T11:14:45;99463.25;;;10.84;100.00
15646;BME280;7922;43.622;1.476;2024-01-15T11:17:11;99407.28;;;10.57;100.00
15646;BME280;7922;43.622;1.476;2024-01-15T11:22:03;99449.31;;;10.80;100.00
15646;BME280;7922;43.622;1.476;2024-01-15T11:24:39;99419.44;;;10.61;100.00
15646;BME280;7922;43.622;1.476;2024-01-15T11:27:06;99434.97;;;10.67;100.00
15646;BME280;7922;43.622;1.476;2024-01-15T11:29:34;99445.31;;;10.89;100.00
15646;BME280;7922;43.622;1.476;2024-01-15T11:32:08;99433.50;;;10.79;100.00
15646;BME280;7922;43.622;1.476;2024-01-15T11:34:57;99447.78;;;10.76;100.00
15646;BME280;7922;43.622;1.476;2024-01-15T11:37:22;99384.91;;;10.45;100.00
15646;BME280;7922;43.622;1.476;2024-01-15T11:39:48;99439.81;;;10.76;100.00
15646;BME280;7922;43.622;1.476;2024-01-15T11:42:14;99374.81;;;10.53;100.00
15646;BME280;7922;43.622;1.476;2024-01-15T11:44:40;99380.75;;;10.74;100.00
15646;BME280;7922;43.622;1.476;2024-01-15T11:47:07;99411.34;;;10.97;100.00
15646;BME280;7922;43.622;1.476;2024-01-15T11:50:01;99435.38;;;11.10;100.00
15646;BME280;7922;43.622;1.476;2024-01-15T11:52:37;99421.09;;;10.97;100.00
15646;BME280;7922;43.622;1.476;2024-01-15T11:57:50;99434.25;;;10.98;100.00
15646;BME280;7922;43.622;1.476;2024-01-15T12:00:16;99370.81;;;10.62;100.00
15646;BME280;7922;43.622;1.476;2024-01-15T12:02:43;99416.13;;;10.91;100.00
15646;BME280;7922;43.622;1.476;2024-01-15T12:05:10;99397.28;;;10.79;100.00
15646;BME280;7922;43.622;1.476;2024-01-15T12:07:36;99358.09;;;10.69;100.00
15646;BME280;7922;43.622;1.476;2024-01-15T12:10:02;99400.59;;;11.00;100.00
15646;BME280;7922;43.622;1.476;2024-01-15T12:15:12;99390.75;;;11.18;100.00
15646;BME280;7922;43.622;1.476;2024-01-15T12:17:38;99389.47;;;11.09;100.00
15646;BME280;7922;43.622;1.476;2024-01-15T12:20:04;99370.50;;;11.01;100.00
15646;BME280;7922;43.622;1.476;2024-01-15T12:22:30;99404.09;;;11.17;100.00
15646;BME280;7922;43.622;1.476;2024-01-15T12:24:55;99385.13;;;11.08;100.00
15646;BME280;7922;43.622;1.476;2024-01-15T12:27:21;99383.06;;;11.14;100.00
15646;BME280;7922;43.622;1.476;2024-01-15T12:29:46;99381.53;;;11.25;100.00
15646;BME280;7922;43.622;1.476;2024-01-15T12:32:12;99357.75;;;11.08;100.00
15646;BME280;7922;43.622;1.476;2024-01-15T12:34:38;99357.81;;;10.91;100.00
15646;BME280;7922;43.622;1.476;2024-01-15T12:37:03;99388.25;;;10.99;100.00
15646;BME280;7922;43.622;1.476;2024-01-15T12:39:28;99358.41;;;10.96;100.00
15646;BME280;7922;43.622;1.476;2024-01-15T12:41:54;99358.63;;;11.08;100.00
15646;BME280;7922;43.622;1.476;2024-01-15T12:44:19;99364.94;;;11.06;100.00
15646;BME280;7922;43.622;1.476;2024-01-15T12:46:45;99365.25;;;11.00;100.00
15646;BME280;7922;43.622;1.476;2024-01-15T12:49:10;99349.06;;;10.89;100.00
15646;BME280;7922;43.622;1.476;2024-01-15T12:51:35;99357.88;;;10.89;100.00
15646;BME280;7922;43.622;1.476;2024-01-15T12:54:01;99348.59;;;11.14;100.00
15646;BME280;7922;43.622;1.476;2024-01-15T12:56:26;99331.75;;;11.15;100.00
15646;BME280;7922;43.622;1.476;2024-01-15T12:58:51;99346.56;;;11.19;100.00
15646;BME280;7922;43.622;1.476;2024-01-15T13:01:16;99345.94;;;11.14;100.00
15646;BME280;7922;43.622;1.476;2024-01-15T13:03:42;99329.72;;;11.20;100.00
15646;BME280;7922;43.622;1.476;2024-01-15T13:06:07;99353.66;;;11.50;100.00
15646;BME280;7922;43.622;1.476;2024-01-15T13:08:33;99346.72;;;11.47;100.00